Time;durP1;ratioP1;P1;durP2;ratioP2;P2;SDS_P1;SDS_P2;PMS_P1;PMS_P2;Temp;Humidity;BMP_temperature;BMP_pressure;BME280_temperature;BME280_humidity;BME280_pressure;Samples;Min_cycle;Max_cycle;Signal;HPM_P1;HPM_P2
2022/05/20 00:02:12;;;;;;;3.15;2.72;;;15.90;99.90;;;;;;4947374;28;20032;-92
2022/05/20 00:04:37;;;;;;;2.60;2.40;;;15.90;99.90;;;;;;4942816;29;20063;-90
2022/05/20 00:07:03;;;;;;;3.30;2.75;;;15.90;99.90;;;;;;4934713;29;20032;-92
2022/05/20 00:09:29;;;;;;;3.53;3.00;;;15.90;99.90;;;;;;4947019;29;20031;-92
2022/05/20 00:11:54;;;;;;;4.25;2.85;;;15.90;99.90;;;;;;4945345;28;20559;-92
2022/05/20 00:14:20;;;;;;;4.20;2.70;;;15.90;99.90;;;;;;4943426;29;20071;-91
2022/05/20 00:16:46;;;;;;;4.88;3.10;;;15.80;99.90;;;;;;4943189;28;20028;-91
2022/05/20 00:19:12;;;;;;;3.72;2.92;;;15.80;99.90;;;;;;4938249;29;20062;-92
2022/05/20 00:21:38;;;;;;;4.43;3.33;;;15.80;99.90;;;;;;4940814;28;20059;-89
2022/05/20 00:24:04;;;;;;;2.92;2.72;;;15.80;99.90;;;;;;4942147;29;20019;-92
2022/05/20 00:26:30;;;;;;;3.63;3.30;;;15.70;99.90;;;;;;4946428;29;20032;-93
2022/05/20 00:28:55;;;;;;;3.30;3.00;;;15.70;99.90;;;;;;4942285;29;20403;-92
2022/05/20 00:31:26;;;;;;;4.95;3.50;;;15.70;99.90;;;;;;4940433;28;20029;-92
2022/05/20 00:33:52;;;;;;;4.15;3.80;;;15.70;99.90;;;;;;4962013;28;20024;-91
2022/05/20 00:36:19;;;;;;;3.53;3.17;;;15.60;99.90;;;;;;4942041;28;20035;-93
2022/05/20 00:38:45;;;;;;;3.78;3.28;;;15.60;99.90;;;;;;4949209;28;20064;-91
2022/05/20 00:41:12;;;;;;;4.20;3.28;;;15.60;99.90;;;;;;4943114;28;20031;-92
2022/05/20 00:43:44;;;;;;;4.32;3.70;;;15.60;99.90;;;;;;4951662;29;20039;-92
2022/05/20 00:46:21;;;;;;;4.53;4.13;;;15.50;99.90;;;;;;4945837;29;20078;-91
2022/05/20 00:48:55;;;;;;;4.05;3.65;;;15.50;99.90;;;;;;4953341;29;20031;-91
2022/05/20 00:51:26;;;;;;;6.93;4.25;;;15.50;99.90;;;;;;4920730;29;20043;-92
2022/05/20 00:54:03;;;;;;;13.55;4.85;;;15.50;99.90;;;;;;4949240;28;20134;-91
2022/05/20 00:56:44;;;;;;;4.47;4.18;;;15.40;99.90;;;;;;4956568;28;20487;-91
2022/05/20 00:59:19;;;;;;;5.43;4.72;;;15.40;99.90;;;;;;4951810;28;20406;-92
2022/05/20 01:01:49;;;;;;;5.50;4.10;;;15.40;99.90;;;;;;4969862;28;20043;-91
2022/05/20 01:04:16;;;;;;;5.38;4.40;;;15.40;99.90;;;;;;4959394;28;20031;-91
2022/05/20 01:06:43;;;;;;;5.47;5.07;;;15.40;99.90;;;;;;4947720;28;20018;-92
2022/05/20 01:09:09;;;;;;;6.43;5.80;;;15.40;99.90;;;;;;4968210;28;20046;-92
2022/05/20 01:11:37;;;;;;;9.70;4.57;;;15.40;99.90;;;;;;4962329;28;20035;-92
2022/05/20 01:14:03;;;;;;;7.35;5.70;;;15.30;99.90;;;;;;4933960;28;20034;-91
2022/05/20 01:16:34;;;;;;;5.10;4.60;;;15.30;99.90;;;;;;4943054;28;20032;-91
2022/05/20 01:19:01;;;;;;;5.57;4.53;;;15.30;99.90;;;;;;4965949;28;20030;-91
2022/05/20 01:21:27;;;;;;;3.97;3.58;;;15.30;99.90;;;;;;4954069;29;20035;-90
2022/05/20 01:23:59;;;;;;;6.10;4.55;;;15.20;99.90;;;;;;4958151;28;20027;-91
2022/05/20 01:26:25;;;;;;;3.95;3.65;;;15.20;99.90;;;;;;4953431;28;20028;-88
2022/05/20 01:28:51;;;;;;;4.20;3.83;;;15.00;99.90;;;;;;4949763;28;20036;-91
2022/05/20 01:31:20;;;;;;;6.63;4.38;;;15.00;99.90;;;;;;4943173;29;20031;-90
2022/05/20 01:33:48;;;;;;;4.97;4.13;;;14.90;99.90;;;;;;4953399;29;20476;-91
2022/05/20 01:36:23;;;;;;;5.93;4.43;;;14.80;99.90;;;;;;4937046;28;20043;-90
2022/05/20 01:38:49;;;;;;;5.57;5.10;;;14.80;99.90;;;;;;4954410;28;20071;-91
2022/05/20 01:41:22;;;;;;;7.80;5.28;;;14.70;99.90;;;;;;4953148;28;20031;-92
2022/05/20 01:43:53;;;;;;;5.65;5.18;;;14.70;99.90;;;;;;4960050;28;20028;-91
2022/05/20 01:46:28;;;;;;;;;;;14.70;99.90;;;;;;4954882;28;20483;-91
2022/05/20 01:49:15;;;;;;;73.82;8.48;;;14.70;99.90;;;;;;4950697;28;19914;-92
2022/05/20 01:52:03;;;;;;;215.57;11.45;;;14.60;99.90;;;;;;4954162;28;20450;-91
2022/05/20 01:54:38;;;;;;;99.22;9.27;;;14.60;99.90;;;;;;4933763;28;20099;-91
2022/05/20 01:57:19;;;;;;;55.85;8.32;;;14.50;99.90;;;;;;4954999;28;20074;-90
2022/05/20 01:59:47;;;;;;;;;;;14.50;99.90;;;;;;4951206;28;20032;-91
2022/05/20 02:02:26;;;;;;;478.20;17.98;;;14.40;99.90;;;;;;4939114;29;19926;-91
2022/05/20 02:05:18;;;;;;;617.28;21.60;;;14.40;99.90;;;;;;4950723;28;20495;-90
2022/05/20 02:07:49;;;;;;;264.33;11.60;;;14.40;99.90;;;;;;4947716;28;20035;-92
2022/05/20 02:10:45;;;;;;;421.85;17.13;;;14.30;99.90;;;;;;4946065;29;20027;-90
2022/05/20 02:13:14;;;;;;;170.27;11.55;;;14.30;99.90;;;;;;4939699;28;20027;-91
2022/05/20 02:16:06;;;;;;;103.75;12.07;;;14.30;99.90;;;;;;4935881;29;20039;-90
2022/05/20 02:19:13;;;;;;;241.57;15.18;;;14.20;99.90;;;;;;4933218;29;20131;-89
2022/05/20 02:21:42;;;;;;;70.60;8.63;;;14.20;99.90;;;;;;4917279;29;20042;-91
2022/05/20 02:24:11;;;;;;;439.38;19.20;;;14.10;99.90;;;;;;4930045;29;20087;-91
2022/05/20 02:26:53;;;;;;;635.20;25.15;;;14.10;99.90;;;;;;4952345;28;20110;-91
2022/05/20 02:29:26;;;;;;;449.02;18.30;;;14.00;99.90;;;;;;4941269;29;20035;-91
2022/05/20 02:32:19;;;;;;;450.65;20.88;;;14.00;99.90;;;;;;4954519;28;20020;-92
2022/05/20 02:34:45;;;;;;;263.45;14.60;;;13.90;99.90;;;;;;4941214;28;20026;-92
2022/05/20 02:37:29;;;;;;;196.95;13.57;;;13.90;99.90;;;;;;4944840;28;20023;-91
2022/05/20 02:39:56;;;;;;;434.17;19.98;;;13.90;99.90;;;;;;4972987;28;20039;-91
2022/05/20 02:42:22;;;;;;;146.18;11.00;;;13.90;99.90;;;;;;4963148;28;20039;-93
2022/05/20 02:44:49;;;;;;;24.08;8.80;;;13.90;99.90;;;;;;4959634;28;20033;-93
2022/05/20 02:47:15;;;;;;;29.13;8.80;;;13.90;99.90;;;;;;4950882;28;20028;-93
2022/05/20 02:49:41;;;;;;;106.95;11.32;;;13.90;99.90;;;;;;4941821;29;20028;-94
2022/05/20 02:52:07;;;;;;;66.80;10.13;;;13.80;99.90;;;;;;4950030;28;20031;-91
2022/05/20 02:54:34;;;;;;;53.30;10.25;;;13.90;99.90;;;;;;4952790;29;20039;-93
2022/05/20 02:56:59;;;;;;;86.15;12.30;;;13.80;99.90;;;;;;4951369;28;20869;-93
2022/05/20 03:04:54;;;;;;;347.60;19.38;;;13.80;99.90;;;;;;4949070;28;20115;-93
2022/05/20 03:07:20;;;;;;;317.80;18.77;;;13.80;99.90;;;;;;4945129;28;20130;-93
2022/05/20 03:09:45;;;;;;;508.00;29.05;;;13.80;99.90;;;;;;4948183;29;20090;-93
2022/05/20 03:12:13;;;;;;;198.95;20.00;;;13.80;99.90;;;;;;4952621;29;20082;-93
2022/05/20 03:14:39;;;;;;;172.00;15.10;;;13.70;99.90;;;;;;4958594;28;20385;-92
2022/05/20 03:17:05;;;;;;;107.72;12.10;;;13.70;99.90;;;;;;4957689;28;20078;-93
2022/05/20 03:19:31;;;;;;;552.45;22.98;;;13.70;99.90;;;;;;4961529;28;20019;-92
2022/05/20 03:21:58;;;;;;;203.13;15.23;;;13.70;99.90;;;;;;4940253;29;20034;-93
2022/05/20 03:24:23;;;;;;;235.80;16.08;;;13.70;99.90;;;;;;4937716;29;20058;-94
2022/05/20 03:26:49;;;;;;;181.32;14.18;;;13.60;99.90;;;;;;4950953;28;20069;-92
2022/05/20 03:29:16;;;;;;;131.73;12.82;;;13.60;99.90;;;;;;4958546;28;20058;-93
2022/05/20 03:31:44;;;;;;;91.72;11.55;;;13.50;99.90;;;;;;4953837;28;20398;-93
2022/05/20 03:34:10;;;;;;;100.90;10.95;;;13.50;99.90;;;;;;4945325;28;20554;-93
2022/05/20 03:36:39;;;;;;;131.85;11.68;;;13.50;99.90;;;;;;4966798;28;20062;-93
2022/05/20 03:39:07;;;;;;;105.32;10.63;;;13.50;99.90;;;;;;4950414;28;20518;-93
2022/05/20 03:41:33;;;;;;;93.88;11.45;;;13.50;99.90;;;;;;4943587;29;20086;-93
2022/05/20 03:43:59;;;;;;;58.17;10.88;;;13.40;99.90;;;;;;4947917;28;20399;-94
2022/05/20 03:46:25;;;;;;;80.60;12.27;;;13.50;99.90;;;;;;4947193;28;20019;-93
2022/05/20 03:48:51;;;;;;;45.63;11.13;;;13.40;99.90;;;;;;4965646;28;20054;-93
2022/05/20 03:51:16;;;;;;;89.15;14.32;;;13.50;99.90;;;;;;4944681;29;20024;-93
2022/05/20 03:53:42;;;;;;;122.78;12.95;;;13.50;99.90;;;;;;4955074;28;20122;-94
2022/05/20 03:56:08;;;;;;;141.40;14.48;;;13.60;99.90;;;;;;4954023;28;20042;-93
2022/05/20 03:58:35;;;;;;;72.38;12.00;;;13.60;99.90;;;;;;4969185;28;20038;-93
2022/05/20 04:03:47;;;;;;;142.77;14.48;;;13.80;99.90;;;;;;4953778;28;20082;-93
2022/05/20 04:06:13;;;;;;;41.85;9.73;;;13.90;99.90;;;;;;4937030;28;20042;-93
2022/05/20 04:08:39;;;;;;;213.45;15.23;;;13.90;99.90;;;;;;4948632;28;20507;-93
2022/05/20 04:11:11;;;;;;;8.27;7.50;;;13.90;99.90;;;;;;4964109;28;20042;-94
2022/05/20 04:13:41;;;;;;;127.30;12.63;;;13.90;99.90;;;;;;4939552;29;20031;-92
2022/05/20 04:16:11;;;;;;;108.63;10.60;;;14.00;99.90;;;;;;4942840;29;20020;-92
2022/05/20 04:18:38;;;;;;;34.80;9.48;;;14.10;99.90;;;;;;4948132;28;20103;-92
2022/05/20 04:21:04;;;;;;;45.85;9.25;;;14.20;99.90;;;;;;4952114;28;20035;-91
2022/05/20 04:23:30;;;;;;;7.07;6.47;;;14.30;99.90;;;;;;4953509;29;20050;-91
2022/05/20 04:25:56;;;;;;;9.48;8.57;;;14.50;99.90;;;;;;4949385;29;20031;-92
2022/05/20 04:28:22;;;;;;;6.43;6.03;;;14.60;99.90;;;;;;4943728;28;20035;-92
2022/05/20 04:30:47;;;;;;;5.43;5.03;;;14.70;99.90;;;;;;4945281;29;20032;-92
2022/05/20 04:33:13;;;;;;;6.03;5.63;;;14.90;99.90;;;;;;4941026;29;20034;-92
2022/05/20 04:35:39;;;;;;;5.72;5.22;;;15.10;99.90;;;;;;4949802;29;20043;-91
2022/05/20 04:38:05;;;;;;;6.93;6.38;;;15.30;99.90;;;;;;4952854;28;20031;-91
2022/05/20 04:40:30;;;;;;;7.18;6.47;;;15.50;99.90;;;;;;4941105;29;20090;-91
2022/05/20 04:48:45;;;;;;;7.25;6.55;;;15.80;99.90;;;;;;4917418;29;20043;-92
2022/05/20 04:51:11;;;;;;;5.57;5.18;;;15.80;99.90;;;;;;4917315;29;20025;-92
2022/05/20 04:56:21;;;;;;;7.45;6.85;;;16.10;99.90;;;;;;4954675;28;20243;-92
2022/05/20 04:58:49;;;;;;;7.60;7.00;;;16.20;99.90;;;;;;4941991;28;20496;-92
2022/05/20 05:01:15;;;;;;;7.53;6.93;;;16.00;99.90;;;;;;4950992;28;20023;-92
2022/05/20 05:03:40;;;;;;;8.57;7.97;;;15.90;99.90;;;;;;4944311;29;20455;-92
2022/05/20 05:06:06;;;;;;;7.88;7.38;;;15.90;99.90;;;;;;4949049;29;20032;-91
2022/05/20 05:08:31;;;;;;;7.72;7.13;;;16.20;99.90;;;;;;4941588;29;20056;-92
2022/05/20 05:10:57;;;;;;;8.52;6.53;;;16.90;99.90;;;;;;4953316;28;20024;-92
2022/05/20 05:13:23;;;;;;;8.57;5.50;;;17.50;99.90;;;;;;4953823;29;20051;-92
2022/05/20 05:15:48;;;;;;;6.18;5.78;;;18.10;99.90;;;;;;4949329;29;20027;-93
2022/05/20 05:18:14;;;;;;;6.80;6.30;;;18.60;99.90;;;;;;4964970;28;20032;-93
2022/05/20 05:20:46;;;;;;;7.15;5.15;;;19.00;99.90;;;;;;4956428;28;20046;-92
2022/05/20 05:23:12;;;;;;;5.70;5.20;;;19.50;99.90;;;;;;4945649;28;20107;-93
2022/05/20 05:25:39;;;;;;;7.60;4.70;;;20.20;99.90;;;;;;4939870;28;20106;-92
2022/05/20 05:28:05;;;;;;;5.82;5.43;;;20.80;99.90;;;;;;4944084;29;20054;-92
2022/05/20 05:30:31;;;;;;;5.22;4.82;;;21.40;99.90;;;;;;4946678;28;20028;-92
2022/05/20 05:32:57;;;;;;;6.22;5.03;;;22.10;99.90;;;;;;4954289;28;20062;-92
2022/05/20 05:35:25;;;;;;;5.35;4.95;;;22.40;99.90;;;;;;4945144;28;20507;-93
2022/05/20 05:37:51;;;;;;;4.90;4.50;;;23.10;99.90;;;;;;4963309;28;20031;-93
2022/05/20 05:40:20;;;;;;;4.40;4.10;;;23.50;99.90;;;;;;4971700;28;20023;-93
2022/05/20 05:42:46;;;;;;;4.80;4.40;;;24.00;99.90;;;;;;4972650;28;20062;-94
2022/05/20 05:45:15;;;;;;;7.10;4.78;;;24.60;99.90;;;;;;4955722;28;20035;-92
2022/05/20 05:47:41;;;;;;;8.93;5.13;;;25.00;99.90;;;;;;4964974;28;20086;-93
2022/05/20 05:50:07;;;;;;;5.00;4.60;;;25.20;99.90;;;;;;4943033;28;20028;-92
2022/05/20 05:52:33;;;;;;;4.80;4.40;;;25.30;99.90;;;;;;4965055;28;20097;-93
2022/05/20 05:55:01;;;;;;;4.50;4.10;;;25.50;99.90;;;;;;4960290;28;20486;-93
2022/05/20 05:57:30;;;;;;;5.05;4.72;;;25.80;99.90;;;;;;4951684;28;20458;-93
2022/05/20 05:59:56;;;;;;;5.40;4.40;;;26.20;99.90;;;;;;4952197;28;20031;-92
2022/05/20 06:02:21;;;;;;;4.80;4.40;;;26.20;99.90;;;;;;4952026;28;20062;-93
2022/05/20 06:04:48;;;;;;;5.10;4.68;;;26.00;99.90;;;;;;4947698;28;20034;-93
2022/05/20 06:07:14;;;;;;;4.82;4.53;;;25.80;99.90;;;;;;4943099;28;20026;-92
2022/05/20 06:09:40;;;;;;;4.78;4.47;;;25.40;99.90;;;;;;4946392;28;20049;-92
2022/05/20 06:12:07;;;;;;;5.05;4.55;;;25.30;99.90;;;;;;4946504;28;20482;-91
2022/05/20 06:14:33;;;;;;;4.55;4.15;;;25.10;99.90;;;;;;4947710;28;20035;-92
2022/05/20 06:16:59;;;;;;;4.88;4.47;;;25.30;99.90;;;;;;4965659;28;21051;-91
2022/05/20 06:19:25;;;;;;;5.05;4.50;;;25.60;99.90;;;;;;4945976;28;20037;-94
2022/05/20 06:21:51;;;;;;;5.22;4.13;;;25.40;99.90;;;;;;4936944;29;20091;-94
2022/05/20 06:24:17;;;;;;;4.38;4.03;;;25.40;99.90;;;;;;4951139;28;20027;-93
2022/05/20 06:26:43;;;;;;;4.13;3.83;;;26.00;99.90;;;;;;4947555;28;20488;-92
2022/05/20 06:29:09;;;;;;;7.65;4.15;;;25.80;99.90;;;;;;4939659;29;20027;-93
2022/05/20 06:31:35;;;;;;;4.07;3.63;;;26.20;99.90;;;;;;4942283;28;20377;-94
2022/05/20 06:34:01;;;;;;;3.92;3.60;;;26.20;99.90;;;;;;4945086;28;20122;-93
2022/05/20 06:42:12;;;;;;;5.13;3.25;;;25.90;99.90;;;;;;4934486;29;20083;-93
2022/05/20 06:44:38;;;;;;;8.75;3.53;;;25.90;99.90;;;;;;4945808;28;20039;-92
2022/05/20 06:47:04;;;;;;;4.20;3.80;;;25.40;99.90;;;;;;4946055;28;20024;-92
2022/05/20 06:49:30;;;;;;;4.20;3.80;;;24.30;99.90;;;;;;4945916;29;20080;-94
2022/05/20 06:51:56;;;;;;;4.32;4.00;;;24.10;99.90;;;;;;4951533;28;20027;-92
2022/05/20 06:54:23;;;;;;;8.60;4.75;;;23.70;99.90;;;;;;4948699;28;20043;-92
2022/05/20 06:56:49;;;;;;;4.70;4.20;;;23.80;99.90;;;;;;4962773;28;20499;-92
2022/05/20 06:59:15;;;;;;;5.03;4.57;;;23.80;99.90;;;;;;4953407;28;20027;-92
2022/05/20 07:01:40;;;;;;;4.65;4.30;;;23.80;99.90;;;;;;4950913;28;20095;-92
2022/05/20 07:04:13;;;;;;;4.40;3.85;;;23.90;99.90;;;;;;4947130;29;20023;-90
2022/05/20 07:06:38;;;;;;;5.07;3.80;;;24.10;99.90;;;;;;4948121;28;20518;-92
2022/05/20 07:09:05;;;;;;;4.90;4.50;;;24.30;99.90;;;;;;4946131;29;20073;-92
2022/05/20 07:11:31;;;;;;;5.78;4.22;;;24.30;99.90;;;;;;4941187;28;20027;-90
2022/05/20 07:13:58;;;;;;;4.70;4.30;;;24.30;99.90;;;;;;4952110;28;20038;-89
2022/05/20 07:16:26;;;;;;;7.72;3.65;;;24.60;99.90;;;;;;4964869;28;20050;-90
2022/05/20 07:18:52;;;;;;;5.82;4.25;;;25.20;99.90;;;;;;4940690;28;20067;-90
2022/05/20 07:21:18;;;;;;;4.28;3.97;;;25.90;99.90;;;;;;4940669;28;20495;-90
2022/05/20 07:23:43;;;;;;;4.57;3.80;;;26.20;99.90;;;;;;4939358;29;20514;-91
2022/05/20 07:26:09;;;;;;;4.40;4.00;;;26.30;99.90;;;;;;4946524;28;20027;-91
2022/05/20 07:28:35;;;;;;;8.90;3.72;;;26.20;99.90;;;;;;4953786;28;20031;-91
2022/05/20 07:31:01;;;;;;;5.75;3.83;;;26.20;99.90;;;;;;4942497;29;20485;-90
2022/05/20 07:33:28;;;;;;;4.55;4.10;;;26.10;99.90;;;;;;4943686;29;20078;-90
2022/05/20 07:35:55;;;;;;;6.55;4.32;;;26.00;99.90;;;;;;4945368;29;20039;-91
2022/05/20 07:38:21;;;;;;;6.60;4.32;;;25.50;99.90;;;;;;4949201;29;20024;-90
2022/05/20 07:40:47;;;;;;;3.90;3.60;;;25.30;99.90;;;;;;4949518;28;20027;-91
2022/05/20 07:43:14;;;;;;;4.95;4.32;;;25.20;99.90;;;;;;4943438;29;20032;-91
2022/05/20 07:45:40;;;;;;;4.15;3.85;;;25.00;99.90;;;;;;4955284;28;20487;-91
2022/05/20 07:48:06;;;;;;;5.13;4.10;;;24.80;99.90;;;;;;4947948;28;20042;-90
2022/05/20 07:50:39;;;;;;;4.85;4.35;;;24.50;99.90;;;;;;4950845;28;20020;-90
2022/05/20 07:53:19;;;;;;;4.60;4.20;;;24.30;99.90;;;;;;4945725;28;20032;-90
2022/05/20 07:55:51;;;;;;;4.93;4.50;;;24.10;99.90;;;;;;4947809;28;20058;-91
2022/05/20 07:58:20;;;;;;;4.78;4.47;;;23.90;99.90;;;;;;4948074;28;20051;-91
2022/05/20 08:00:46;;;;;;;9.38;4.85;;;23.80;99.90;;;;;;4945981;28;20480;-91
2022/05/20 08:03:14;;;;;;;7.28;4.60;;;23.80;99.90;;;;;;4943638;28;20046;-91
2022/05/20 08:05:39;;;;;;;8.43;4.95;;;23.80;99.90;;;;;;4938392;29;20036;-90
2022/05/20 08:08:07;;;;;;;5.95;4.75;;;23.90;99.90;;;;;;4945238;28;20082;-92
2022/05/20 08:10:35;;;;;;;5.95;5.45;;;24.20;99.90;;;;;;4956807;28;20031;-89
2022/05/20 08:13:02;;;;;;;8.23;5.10;;;24.60;99.90;;;;;;4944303;28;20023;-91
2022/05/20 08:15:29;;;;;;;7.10;4.25;;;24.80;99.90;;;;;;4951467;28;20040;-91
2022/05/20 08:17:55;;;;;;;8.70;4.97;;;25.00;99.90;;;;;;4952476;29;20027;-91
2022/05/20 08:20:27;;;;;;;12.10;5.13;;;25.10;99.90;;;;;;4945832;28;20039;-90
2022/05/20 08:22:53;;;;;;;6.07;5.53;;;25.10;99.90;;;;;;4934604;28;20039;-91
2022/05/20 08:25:20;;;;;;;5.13;4.63;;;24.90;99.90;;;;;;4942371;28;20407;-91
2022/05/20 08:27:46;;;;;;;6.78;5.68;;;24.80;99.90;;;;;;4943713;29;20034;-91
2022/05/20 08:30:15;;;;;;;5.50;5.00;;;24.50;99.90;;;;;;4939014;28;20036;-90
2022/05/20 08:32:42;;;;;;;5.85;5.25;;;24.40;99.90;;;;;;4948626;28;20114;-90
2022/05/20 08:35:07;;;;;;;5.93;5.43;;;24.30;99.90;;;;;;4957468;28;20059;-90
2022/05/20 08:37:37;;;;;;;6.65;5.75;;;24.20;99.90;;;;;;4933548;28;20035;-92
2022/05/20 08:40:04;;;;;;;5.38;4.97;;;23.90;99.90;;;;;;4956216;28;20119;-91
2022/05/20 08:42:32;;;;;;;6.07;5.10;;;23.70;99.90;;;;;;4946710;28;20511;-92
2022/05/20 08:44:58;;;;;;;5.72;5.13;;;24.00;99.90;;;;;;4931078;28;20043;-92
2022/05/20 08:47:46;;;;;;;5.65;5.18;;;24.20;99.90;;;;;;4963337;28;20059;-91
2022/05/20 08:50:18;;;;;;;6.20;5.25;;;24.50;99.90;;;;;;4938733;29;20028;-91
2022/05/20 08:52:44;;;;;;;6.05;5.55;;;24.70;99.90;;;;;;4948684;28;20057;-91
2022/05/20 08:55:11;;;;;;;8.40;4.28;;;24.90;99.90;;;;;;4942505;28;20062;-90
2022/05/20 08:57:38;;;;;;;5.43;4.93;;;25.00;99.90;;;;;;4969583;28;20027;-91
2022/05/20 09:00:11;;;;;;;8.27;5.30;;;25.20;99.90;;;;;;4952263;29;20058;-91
2022/05/20 09:02:37;;;;;;;6.40;4.88;;;25.40;99.90;;;;;;4977705;28;20376;-91
2022/05/20 09:05:21;;;;;;;5.93;5.43;;;26.00;99.50;;;;;;4966405;28;20023;-90
2022/05/20 09:08:33;;;;;;;5.05;4.70;;;26.30;95.30;;;;;;4977400;28;20033;-91
2022/05/20 09:10:59;;;;;;;;;;;25.90;96.60;;;;;;4973481;28;20030;-90
2022/05/20 09:16:18;;;;;;;5.70;5.20;;;26.10;96.80;;;;;;4966343;28;20143;-91
2022/05/20 09:18:49;;;;;;;5.70;5.18;;;25.90;96.40;;;;;;4972047;28;20380;-89
2022/05/20 09:21:25;;;;;;;5.57;5.10;;;25.90;97.10;;;;;;4950269;28;20044;-89
2022/05/20 09:23:56;;;;;;;6.50;5.50;;;25.70;98.30;;;;;;4950239;29;20071;-90
2022/05/20 09:26:24;;;;;;;;;;;25.60;99.90;;;;;;4957581;28;20127;-89
2022/05/20 09:29:03;;;;;;;5.18;4.10;;;25.70;98.60;;;;;;4941778;29;19950;-89
2022/05/20 09:31:48;;;;;;;6.57;4.95;;;26.40;99.50;;;;;;4947798;28;20040;-89
2022/05/20 09:34:20;;;;;;;6.13;4.55;;;27.10;97.90;;;;;;4949965;29;20027;-90
2022/05/20 09:37:07;;;;;;;5.38;4.88;;;27.10;90.90;;;;;;4965634;28;20040;-90
2022/05/20 09:39:38;;;;;;;5.10;4.53;;;27.00;91.30;;;;;;4948252;29;20031;-87
2022/05/20 09:42:12;;;;;;;;;;;27.00;92.40;;;;;;4955059;28;20039;-87
2022/05/20 09:44:41;;;;;;;5.70;5.03;;;27.10;89.10;;;;;;4948099;28;19929;-87
2022/05/20 09:47:26;;;;;;;5.00;4.53;;;26.80;92.80;;;;;;4947238;28;20036;-89
2022/05/20 09:49:59;;;;;;;5.35;4.82;;;26.90;94.50;;;;;;4945385;28;20050;-89
2022/05/20 09:52:45;;;;;;;7.00;4.28;;;27.20;94.70;;;;;;4944412;28;20039;-89
2022/05/20 09:55:22;;;;;;;4.57;3.40;;;28.00;91.50;;;;;;4953304;28;20474;-90
2022/05/20 09:57:48;;;;;;;3.88;3.30;;;28.40;80.40;;;;;;4951209;28;20141;-91
2022/05/20 10:00:19;;;;;;;4.28;3.72;;;28.10;80.20;;;;;;4973808;28;20058;-90
2022/05/20 10:03:16;;;;;;;6.95;4.07;;;28.10;82.10;;;;;;4972628;28;20033;-91
2022/05/20 10:06:07;;;;;;;5.57;4.18;;;28.10;87.30;;;;;;4981142;28;20043;-89
2022/05/20 10:08:38;;;;;;;5.28;4.82;;;27.90;87.80;;;;;;4965911;28;20027;-92
2022/05/20 10:11:13;;;;;;;4.15;3.80;;;27.70;88.40;;;;;;4957519;28;20043;-92
2022/05/20 10:13:53;;;;;;;5.60;4.10;;;27.90;88.20;;;;;;4951840;28;20035;-91
2022/05/20 10:16:32;;;;;;;4.88;4.47;;;27.60;91.60;;;;;;4966776;28;20106;-90
2022/05/20 10:19:07;;;;;;;3.83;3.50;;;27.20;91.20;;;;;;4974360;28;20055;-90
2022/05/20 10:21:39;;;;;;;5.97;3.15;;;27.60;92.70;;;;;;4966637;28;20046;-92
2022/05/20 10:24:42;;;;;;;3.75;3.45;;;28.20;88.70;;;;;;4978942;28;20118;-90
2022/05/20 10:27:23;;;;;;;5.78;3.33;;;28.80;79.10;;;;;;4966541;28;20031;-89
2022/05/20 10:33:13;;;;;;;5.03;3.45;;;29.40;75.70;;;;;;4946222;28;20043;-92
2022/05/20 10:35:38;;;;;;;3.78;2.97;;;29.90;78.20;;;;;;4952049;28;20059;-90
2022/05/20 10:38:19;;;;;;;5.00;3.28;;;30.00;79.90;;;;;;4943707;28;20062;-90
2022/05/20 10:40:53;;;;;;;4.18;3.80;;;30.40;74.40;;;;;;4941632;29;20040;-90
2022/05/20 10:49:34;;;;;;;3.75;3.17;;;30.50;70.00;;;;;;4945903;29;20042;-90
2022/05/20 10:52:20;;;;;;;4.15;3.10;;;30.70;73.00;;;;;;4946857;29;20518;-89
2022/05/20 10:55:09;;;;;;;3.65;3.17;;;31.10;69.40;;;;;;4951540;28;20054;-90
2022/05/20 10:57:56;;;;;;;4.25;3.08;;;30.10;71.40;;;;;;4947301;28;20036;-89
2022/05/20 11:00:30;;;;;;;3.80;3.50;;;29.70;74.00;;;;;;4945402;29;20082;-90
2022/05/20 11:03:37;;;;;;;6.40;3.35;;;29.80;74.40;;;;;;4952241;28;20035;-90
2022/05/20 11:06:27;;;;;;;5.78;3.35;;;29.70;77.70;;;;;;4968523;28;20039;-90
2022/05/20 11:09:06;;;;;;;3.95;3.65;;;29.70;80.60;;;;;;4954061;28;20051;-90
2022/05/20 11:11:47;;;;;;;4.93;3.47;;;29.50;76.90;;;;;;4944796;28;20020;-90
2022/05/20 11:14:15;;;;;;;4.30;3.90;;;29.90;75.80;;;;;;4948025;28;20071;-91
2022/05/20 11:16:58;;;;;;;2.67;2.42;;;30.00;76.20;;;;;;4948911;28;20141;-90
2022/05/20 11:19:35;;;;;;;5.00;3.17;;;30.00;66.70;;;;;;4946008;28;20023;-93
2022/05/20 11:22:06;;;;;;;3.80;2.28;;;29.80;66.00;;;;;;4942456;29;20028;-91
2022/05/20 11:24:48;;;;;;;3.50;2.50;;;30.30;68.60;;;;;;4961645;28;20038;-90
2022/05/20 11:27:41;;;;;;;4.00;2.60;;;30.70;63.70;;;;;;4947646;28;20046;-91
2022/05/20 11:30:09;;;;;;;7.53;2.72;;;31.00;64.00;;;;;;4967197;28;20085;-90
2022/05/20 11:32:59;;;;;;;7.40;2.65;;;31.00;62.70;;;;;;4975471;28;20038;-91
2022/05/20 11:35:47;;;;;;;3.87;2.27;;;30.30;65.10;;;;;;4959335;28;20038;-90
2022/05/20 11:38:25;;;;;;;4.63;2.83;;;30.20;67.80;;;;;;4969364;28;20509;-92
2022/05/20 11:41:09;;;;;;;2.67;2.33;;;29.90;65.90;;;;;;4970384;28;20031;-91
2022/05/20 11:44:00;;;;;;;5.10;2.40;;;30.20;70.90;;;;;;4961777;28;21459;-89
2022/05/20 11:46:29;;;;;;;6.10;2.22;;;30.60;64.70;;;;;;4955213;28;20065;-91
2022/05/20 11:49:19;;;;;;;5.07;2.35;;;31.00;64.80;;;;;;4950044;28;20062;-91
2022/05/20 11:52:14;;;;;;;2.87;2.60;;;31.70;62.50;;;;;;4961222;28;20042;-91
2022/05/20 11:55:09;;;;;;;2.72;2.53;;;32.00;62.50;;;;;;4936590;29;20050;-91
2022/05/20 11:57:43;;;;;;;8.13;2.00;;;32.80;60.60;;;;;;4939194;29;20028;-92
2022/05/20 12:00:13;;;;;;;4.20;2.22;;;33.50;59.20;;;;;;4942677;28;20031;-92
2022/05/20 12:03:12;;;;;;;4.07;2.30;;;34.10;57.50;;;;;;4931549;29;20027;-91
2022/05/20 12:05:41;;;;;;;3.97;2.38;;;34.10;53.90;;;;;;4943643;28;20031;-89
2022/05/20 12:08:10;;;;;;;3.97;2.47;;;33.60;57.20;;;;;;4953607;28;20495;-91
2022/05/20 12:10:49;;;;;;;3.03;2.00;;;33.90;55.80;;;;;;4938744;28;20036;-90
2022/05/20 12:13:24;;;;;;;4.75;1.75;;;34.30;57.20;;;;;;4939884;28;20023;-91
2022/05/20 12:16:08;;;;;;;3.78;2.33;;;34.90;55.00;;;;;;4950059;29;20027;-91
2022/05/20 12:24:49;;;;;;;5.90;2.10;;;36.00;52.30;;;;;;4961471;28;20712;-91
2022/05/20 12:27:22;;;;;;;3.25;2.45;;;36.30;52.00;;;;;;4938236;29;20024;-89
2022/05/20 12:29:57;;;;;;;10.68;2.60;;;36.00;50.40;;;;;;4944940;28;20061;-94
2022/05/20 12:32:24;;;;;;;3.83;2.13;;;36.10;51.30;;;;;;4955882;28;20398;-91
2022/05/20 12:35:08;;;;;;;2.50;1.98;;;36.20;51.00;;;;;;4954929;28;20042;-91
2022/05/20 12:37:43;;;;;;;4.90;2.50;;;36.20;50.40;;;;;;4949579;28;20027;-93
2022/05/20 12:40:24;;;;;;;4.75;2.45;;;36.30;50.90;;;;;;4969904;28;20078;-93
2022/05/20 12:43:09;;;;;;;5.55;2.30;;;36.40;51.70;;;;;;4976302;28;20037;-91
2022/05/20 12:45:56;;;;;;;5.43;2.45;;;36.50;50.10;;;;;;4953434;28;20027;-92
2022/05/20 12:48:25;;;;;;;3.30;2.60;;;36.70;51.80;;;;;;4973097;28;20062;-90
2022/05/20 12:50:59;;;;;;;3.58;2.03;;;36.80;50.80;;;;;;4976727;28;20505;-92
2022/05/20 12:53:28;;;;;;;3.80;2.55;;;36.90;50.20;;;;;;4972209;28;20094;-93
2022/05/20 12:55:55;;;;;;;4.18;3.05;;;36.50;50.30;;;;;;4972237;28;20038;-91
2022/05/20 12:58:25;;;;;;;5.18;2.58;;;35.60;51.00;;;;;;4971527;28;20110;-92
2022/05/20 13:00:53;;;;;;;4.15;2.58;;;35.50;53.80;;;;;;4949665;28;20030;-91
2022/05/20 13:03:24;;;;;;;6.95;2.22;;;35.60;52.70;;;;;;4957095;28;20039;-91
2022/05/20 13:06:00;;;;;;;6.32;2.58;;;35.90;53.70;;;;;;4947188;28;20547;-92
2022/05/20 13:08:49;;;;;;;2.55;2.10;;;36.00;49.40;;;;;;4961596;28;20042;-92
2022/05/20 13:11:17;;;;;;;4.00;2.20;;;36.10;49.70;;;;;;4943536;28;20034;-91
2022/05/20 13:13:45;;;;;;;7.47;2.42;;;36.00;50.00;;;;;;4956830;28;20023;-92
2022/05/20 13:16:13;;;;;;;4.90;2.28;;;35.60;48.00;;;;;;4957693;28;20379;-91
2022/05/20 13:18:41;;;;;;;3.05;2.17;;;35.20;49.90;;;;;;4970772;28;20431;-90
2022/05/20 13:21:16;;;;;;;7.85;2.08;;;35.30;49.70;;;;;;4950846;28;20042;-90
2022/05/20 13:23:44;;;;;;;3.33;2.08;;;35.60;48.70;;;;;;4971100;28;20043;-93
2022/05/20 13:26:27;;;;;;;4.65;2.22;;;35.90;48.10;;;;;;4963101;28;20039;-92
2022/05/20 13:29:09;;;;;;;5.32;2.00;;;36.20;48.10;;;;;;4966908;28;20026;-91
2022/05/20 13:31:35;;;;;;;4.22;2.35;;;36.30;47.60;;;;;;4969860;28;20138;-92
2022/05/20 13:34:02;;;;;;;4.78;2.42;;;36.20;47.20;;;;;;4957348;28;20114;-92
2022/05/20 13:36:46;;;;;;;4.20;1.80;;;36.30;47.50;;;;;;4947007;28;20106;-93
2022/05/20 13:39:24;;;;;;;3.35;2.00;;;36.20;45.30;;;;;;4958201;28;20035;-91
2022/05/20 13:41:50;;;;;;;5.28;2.33;;;36.10;46.70;;;;;;4958678;28;20038;-92
2022/05/20 13:44:19;;;;;;;3.13;1.95;;;36.00;45.90;;;;;;4951103;28;20027;-91
2022/05/20 13:49:33;;;;;;;4.90;2.05;;;35.90;45.60;;;;;;4952783;28;20114;-91